sensor_id;sensor_type;location;lat;lon;timestamp;P1;durP1;ratioP1;P2;durP2;ratioP2
69030;SDS011;56083;48.774;8.942;2023-02-20T00:00:43;15.88;;;3.67;;
69030;SDS011;56083;48.774;8.942;2023-02-20T00:03:08;16.80;;;3.90;;
69030;SDS011;56083;48.774;8.942;2023-02-20T00:05:34;18.95;;;4.03;;
69030;SDS011;56083;48.774;8.942;2023-02-20T00:08:00;14.27;;;3.78;;
69030;SDS011;56083;48.774;8.942;2023-02-20T00:10:26;12.50;;;4.30;;
69030;SDS011;56083;48.774;8.942;2023-02-20T00:12:52;15.07;;;4.25;;
69030;SDS011;56083;48.774;8.942;2023-02-20T00:15:18;15.63;;;3.85;;
69030;SDS011;56083;48.774;8.942;2023-02-20T00:17:45;13.23;;;4.20;;
69030;SDS011;56083;48.774;8.942;2023-02-20T00:20:16;14.80;;;4.43;;
69030;SDS011;56083;48.774;8.942;2023-02-20T00:22:46;13.63;;;4.40;;
69030;SDS011;56083;48.774;8.942;2023-02-20T00:25:14;11.10;;;4.18;;
69030;SDS011;56083;48.774;8.942;2023-02-20T00:27:41;12.35;;;4.75;;
69030;SDS011;56083;48.774;8.942;2023-02-20T00:30:09;15.35;;;4.60;;
69030;SDS011;56083;48.774;8.942;2023-02-20T00:32:39;13.52;;;4.32;;
69030;SDS011;56083;48.774;8.942;2023-02-20T00:35:04;20.52;;;4.97;;
69030;SDS011;56083;48.774;8.942;2023-02-20T00:37:30;22.80;;;4.97;;
69030;SDS011;56083;48.774;8.942;2023-02-20T00:39:56;18.48;;;4.90;;
69030;SDS011;56083;48.774;8.942;2023-02-20T00:42:21;13.85;;;4.30;;
69030;SDS011;56083;48.774;8.942;2023-02-20T00:44:47;11.80;;;4.30;;
69030;SDS011;56083;48.774;8.942;2023-02-20T00:47:12;14.40;;;4.43;;
69030;SDS011;56083;48.774;8.942;2023-02-20T00:49:38;13.50;;;4.13;;
69030;SDS011;56083;48.774;8.942;2023-02-20T00:52:04;17.05;;;4.90;;
69030;SDS011;56083;48.774;8.942;2023-02-20T00:54:29;13.73;;;4.22;;
69030;SDS011;56083;48.774;8.942;2023-02-20T00:56:55;13.98;;;4.72;;
69030;SDS011;56083;48.774;8.942;2023-02-20T00:59:20;13.13;;;4.10;;
69030;SDS011;56083;48.774;8.942;2023-02-20T01:01:46;15.55;;;4.72;;
69030;SDS011;56083;48.774;8.942;2023-02-20T01:04:12;12.35;;;4.30;;
69030;SDS011;56083;48.774;8.942;2023-02-20T01:06:38;15.30;;;4.60;;
69030;SDS011;56083;48.774;8.942;2023-02-20T01:09:04;16.20;;;4.80;;
69030;SDS011;56083;48.774;8.942;2023-02-20T01:11:29;12.93;;;4.97;;
69030;SDS011;56083;48.774;8.942;2023-02-20T01:13:55;20.10;;;4.80;;
69030;SDS011;56083;48.774;8.942;2023-02-20T01:16:20;16.42;;;4.53;;
69030;SDS011;56083;48.774;8.942;2023-02-20T01:18:49;18.25;;;4.68;;
69030;SDS011;56083;48.774;8.942;2023-02-20T01:21:16;13.85;;;4.13;;
69030;SDS011;56083;48.774;8.942;2023-02-20T01:23:41;16.83;;;4.50;;
69030;SDS011;56083;48.774;8.942;2023-02-20T01:26:07;16.17;;;4.95;;
69030;SDS011;56083;48.774;8.942;2023-02-20T01:28:33;13.00;;;4.00;;
69030;SDS011;56083;48.774;8.942;2023-02-20T01:30:58;12.10;;;4.30;;
69030;SDS011;56083;48.774;8.942;2023-02-20T01:33:24;14.38;;;4.70;;
69030;SDS011;56083;48.774;8.942;2023-02-20T01:35:50;13.85;;;4.05;;
69030;SDS011;56083;48.774;8.942;2023-02-20T01:38:16;13.00;;;3.72;;
69030;SDS011;56083;48.774;8.942;2023-02-20T01:40:45;14.63;;;4.40;;
69030;SDS011;56083;48.774;8.942;2023-02-20T01:43:13;18.30;;;4.40;;
69030;SDS011;56083;48.774;8.942;2023-02-20T01:45:39;14.40;;;4.15;;
69030;SDS011;56083;48.774;8.942;2023-02-20T01:48:05;14.88;;;4.40;;
69030;SDS011;56083;48.774;8.942;2023-02-20T01:50:33;9.77;;;3.72;;
69030;SDS011;56083;48.774;8.942;2023-02-20T01:53:07;17.65;;;4.88;;
69030;SDS011;56083;48.774;8.942;2023-02-20T01:58:07;12.88;;;4.20;;
69030;SDS011;56083;48.774;8.942;2023-02-20T02:00:40;13.35;;;4.63;;
69030;SDS011;56083;48.774;8.942;2023-02-20T02:03:09;11.10;;;3.97;;
69030;SDS011;56083;48.774;8.942;2023-02-20T02:05:38;14.32;;;4.15;;
69030;SDS011;56083;48.774;8.942;2023-02-20T02:08:08;17.33;;;4.22;;
69030;SDS011;56083;48.774;8.942;2023-02-20T02:10:39;13.48;;;3.90;;
69030;SDS011;56083;48.774;8.942;2023-02-20T02:13:08;13.02;;;3.78;;
69030;SDS011;56083;48.774;8.942;2023-02-20T02:15:34;14.15;;;4.00;;
69030;SDS011;56083;48.774;8.942;2023-02-20T02:48:25;13.10;;;3.40;;
69030;SDS011;56083;48.774;8.942;2023-02-20T02:51:07;9.27;;;2.88;;
69030;SDS011;56083;48.774;8.942;2023-02-20T02:53:36;13.98;;;3.28;;
69030;SDS011;56083;48.774;8.942;2023-02-20T02:56:02;8.60;;;3.28;;
69030;SDS011;56083;48.774;8.942;2023-02-20T02:58:45;7.10;;;2.97;;
69030;SDS011;56083;48.774;8.942;2023-02-20T03:01:12;9.65;;;3.10;;
69030;SDS011;56083;48.774;8.942;2023-02-20T03:03:41;10.60;;;3.33;;
69030;SDS011;56083;48.774;8.942;2023-02-20T03:06:19;13.68;;;3.45;;
69030;SDS011;56083;48.774;8.942;2023-02-20T03:11:31;10.93;;;3.20;;
69030;SDS011;56083;48.774;8.942;2023-02-20T03:14:00;11.32;;;2.83;;
69030;SDS011;56083;48.774;8.942;2023-02-20T03:19:31;9.48;;;3.50;;
69030;SDS011;56083;48.774;8.942;2023-02-20T03:22:01;11.30;;;4.13;;
69030;SDS011;56083;48.774;8.942;2023-02-20T03:24:31;8.25;;;3.17;;
69030;SDS011;56083;48.774;8.942;2023-02-20T03:27:18;12.68;;;3.47;;
69030;SDS011;56083;48.774;8.942;2023-02-20T03:29:44;7.15;;;2.90;;
69030;SDS011;56083;48.774;8.942;2023-02-20T03:32:12;7.43;;;2.88;;
69030;SDS011;56083;48.774;8.942;2023-02-20T03:34:57;10.82;;;3.80;;
69030;SDS011;56083;48.774;8.942;2023-02-20T03:37:44;13.00;;;3.20;;
69030;SDS011;56083;48.774;8.942;2023-02-20T03:40:30;12.23;;;3.30;;
69030;SDS011;56083;48.774;8.942;2023-02-20T03:43:16;11.32;;;3.05;;
69030;SDS011;56083;48.774;8.942;2023-02-20T03:45:54;10.05;;;3.10;;
69030;SDS011;56083;48.774;8.942;2023-02-20T03:48:28;8.25;;;2.88;;
69030;SDS011;56083;48.774;8.942;2023-02-20T03:50:57;9.73;;;3.10;;
69030;SDS011;56083;48.774;8.942;2023-02-20T03:53:35;12.82;;;3.20;;
69030;SDS011;56083;48.774;8.942;2023-02-20T03:56:02;14.23;;;3.47;;
69030;SDS011;56083;48.774;8.942;2023-02-20T03:58:32;13.32;;;3.25;;
69030;SDS011;56083;48.774;8.942;2023-02-20T04:01:02;13.05;;;3.63;;
69030;SDS011;56083;48.774;8.942;2023-02-20T04:03:32;13.82;;;3.67;;
69030;SDS011;56083;48.774;8.942;2023-02-20T04:06:03;15.20;;;3.78;;
69030;SDS011;56083;48.774;8.942;2023-02-20T04:08:36;13.15;;;3.83;;
69030;SDS011;56083;48.774;8.942;2023-02-20T04:11:20;13.13;;;3.88;;
69030;SDS011;56083;48.774;8.942;2023-02-20T04:13:52;16.40;;;4.32;;
69030;SDS011;56083;48.774;8.942;2023-02-20T04:16:19;13.30;;;3.47;;
69030;SDS011;56083;48.774;8.942;2023-02-20T04:18:45;13.05;;;3.50;;
69030;SDS011;56083;48.774;8.942;2023-02-20T04:24:28;12.35;;;3.97;;
69030;SDS011;56083;48.774;8.942;2023-02-20T04:27:04;14.88;;;4.00;;
69030;SDS011;56083;48.774;8.942;2023-02-20T04:29:30;12.25;;;3.83;;
69030;SDS011;56083;48.774;8.942;2023-02-20T04:31:55;12.07;;;3.83;;
69030;SDS011;56083;48.774;8.942;2023-02-20T04:34:21;14.43;;;4.10;;
69030;SDS011;56083;48.774;8.942;2023-02-20T04:36:47;11.70;;;3.83;;
69030;SDS011;56083;48.774;8.942;2023-02-20T04:39:12;16.35;;;4.20;;
69030;SDS011;56083;48.774;8.942;2023-02-20T04:41:38;11.50;;;3.90;;
69030;SDS011;56083;48.774;8.942;2023-02-20T04:44:04;13.00;;;3.72;;
69030;SDS011;56083;48.774;8.942;2023-02-20T04:49:13;16.17;;;4.55;;
69030;SDS011;56083;48.774;8.942;2023-02-20T04:51:39;13.05;;;4.20;;
69030;SDS011;56083;48.774;8.942;2023-02-20T04:54:04;19.73;;;4.75;;
69030;SDS011;56083;48.774;8.942;2023-02-20T04:56:30;13.73;;;4.60;;
69030;SDS011;56083;48.774;8.942;2023-02-20T04:58:55;15.48;;;4.47;;
69030;SDS011;56083;48.774;8.942;2023-02-20T05:01:21;20.55;;;5.40;;
69030;SDS011;56083;48.774;8.942;2023-02-20T05:03:47;17.13;;;4.88;;
69030;SDS011;56083;48.774;8.942;2023-02-20T05:06:12;8.93;;;4.50;;
69030;SDS011;56083;48.774;8.942;2023-02-20T05:08:38;13.27;;;4.70;;
69030;SDS011;56083;48.774;8.942;2023-02-20T05:11:03;20.90;;;6.05;;
69030;SDS011;56083;48.774;8.942;2023-02-20T05:13:29;16.33;;;5.68;;
69030;SDS011;56083;48.774;8.942;2023-02-20T05:15:55;13.88;;;5.30;;
69030;SDS011;56083;48.774;8.942;2023-02-20T05:18:27;14.32;;;5.13;;
69030;SDS011;56083;48.774;8.942;2023-02-20T05:20:54;13.93;;;4.93;;
69030;SDS011;56083;48.774;8.942;2023-02-20T05:23:39;15.93;;;5.50;;
69030;SDS011;56083;48.774;8.942;2023-02-20T05:26:11;17.05;;;6.40;;
69030;SDS011;56083;48.774;8.942;2023-02-20T05:28:40;10.45;;;5.05;;
69030;SDS011;56083;48.774;8.942;2023-02-20T05:31:06;12.27;;;5.43;;
69030;SDS011;56083;48.774;8.942;2023-02-20T05:33:32;13.93;;;6.05;;
69030;SDS011;56083;48.774;8.942;2023-02-20T05:35:58;20.75;;;6.25;;
69030;SDS011;56083;48.774;8.942;2023-02-20T05:38:24;15.70;;;5.50;;
69030;SDS011;56083;48.774;8.942;2023-02-20T05:40:49;16.48;;;5.93;;
69030;SDS011;56083;48.774;8.942;2023-02-20T05:43:15;14.77;;;5.70;;
69030;SDS011;56083;48.774;8.942;2023-02-20T05:45:41;14.10;;;6.15;;
69030;SDS011;56083;48.774;8.942;2023-02-20T05:48:07;18.17;;;6.13;;
69030;SDS011;56083;48.774;8.942;2023-02-20T05:50:33;20.50;;;5.78;;
69030;SDS011;56083;48.774;8.942;2023-02-20T05:52:58;11.20;;;5.65;;
69030;SDS011;56083;48.774;8.942;2023-02-20T05:55:24;15.57;;;5.75;;
69030;SDS011;56083;48.774;8.942;2023-02-20T05:57:49;13.23;;;5.53;;
69030;SDS011;56083;48.774;8.942;2023-02-20T06:00:15;15.88;;;6.07;;
69030;SDS011;56083;48.774;8.942;2023-02-20T06:02:41;27.63;;;6.70;;
69030;SDS011;56083;48.774;8.942;2023-02-20T06:05:07;17.05;;;5.93;;
69030;SDS011;56083;48.774;8.942;2023-02-20T06:07:33;22.02;;;6.88;;
69030;SDS011;56083;48.774;8.942;2023-02-20T06:09:59;17.38;;;6.53;;
69030;SDS011;56083;48.774;8.942;2023-02-20T06:12:24;24.23;;;6.90;;
69030;SDS011;56083;48.774;8.942;2023-02-20T06:14:50;19.50;;;6.65;;
69030;SDS011;56083;48.774;8.942;2023-02-20T06:17:16;29.92;;;7.68;;
69030;SDS011;56083;48.774;8.942;2023-02-20T06:19:41;22.42;;;6.97;;
69030;SDS011;56083;48.774;8.942;2023-02-20T06:22:07;21.48;;;7.10;;
69030;SDS011;56083;48.774;8.942;2023-02-20T06:24:32;18.98;;;7.20;;
69030;SDS011;56083;48.774;8.942;2023-02-20T06:26:58;20.70;;;7.35;;
69030;SDS011;56083;48.774;8.942;2023-02-20T06:29:25;23.52;;;7.47;;
69030;SDS011;56083;48.774;8.942;2023-02-20T06:31:50;28.77;;;8.30;;
69030;SDS011;56083;48.774;8.942;2023-02-20T06:34:16;24.67;;;8.30;;
69030;SDS011;56083;48.774;8.942;2023-02-20T06:36:42;25.67;;;8.40;;
69030;SDS011;56083;48.774;8.942;2023-02-20T06:39:09;30.58;;;9.13;;
69030;SDS011;56083;48.774;8.942;2023-02-20T06:41:35;25.33;;;9.40;;
69030;SDS011;56083;48.774;8.942;2023-02-20T06:44:01;30.95;;;8.00;;
69030;SDS011;56083;48.774;8.942;2023-02-20T06:46:27;31.42;;;8.95;;
69030;SDS011;56083;48.774;8.942;2023-02-20T06:48:54;25.60;;;8.10;;
69030;SDS011;56083;48.774;8.942;2023-02-20T06:51:22;24.25;;;8.32;;
69030;SDS011;56083;48.774;8.942;2023-02-20T06:53:55;18.30;;;6.55;;
69030;SDS011;56083;48.774;8.942;2023-02-20T06:56:23;20.48;;;5.53;;
69030;SDS011;56083;48.774;8.942;2023-02-20T06:58:51;17.63;;;5.85;;
69030;SDS011;56083;48.774;8.942;2023-02-20T07:01:18;16.15;;;5.43;;
69030;SDS011;56083;48.774;8.942;2023-02-20T07:03:45;24.52;;;5.78;;
69030;SDS011;56083;48.774;8.942;2023-02-20T07:06:15;15.30;;;4.55;;
69030;SDS011;56083;48.774;8.942;2023-02-20T07:08:41;14.80;;;3.97;;
69030;SDS011;56083;48.774;8.942;2023-02-20T07:11:07;18.55;;;3.92;;
69030;SDS011;56083;48.774;8.942;2023-02-20T07:13:33;11.82;;;3.85;;
69030;SDS011;56083;48.774;8.942;2023-02-20T07:15:59;11.45;;;3.75;;
69030;SDS011;56083;48.774;8.942;2023-02-20T07:18:25;13.02;;;3.63;;
69030;SDS011;56083;48.774;8.942;2023-02-20T07:20:51;11.27;;;3.60;;
69030;SDS011;56083;48.774;8.942;2023-02-20T07:23:18;15.05;;;3.40;;
69030;SDS011;56083;48.774;8.942;2023-02-20T07:25:44;18.30;;;3.70;;
69030;SDS011;56083;48.774;8.942;2023-02-20T07:28:10;21.35;;;3.83;;
69030;SDS011;56083;48.774;8.942;2023-02-20T07:30:35;17.17;;;3.85;;
69030;SDS011;56083;48.774;8.942;2023-02-20T07:33:01;21.85;;;3.70;;
69030;SDS011;56083;48.774;8.942;2023-02-20T07:35:27;13.85;;;3.20;;
69030;SDS011;56083;48.774;8.942;2023-02-20T07:37:52;11.32;;;3.28;;
69030;SDS011;56083;48.774;8.942;2023-02-20T07:40:18;13.48;;;3.22;;
69030;SDS011;56083;48.774;8.942;2023-02-20T07:42:44;8.52;;;3.10;;
69030;SDS011;56083;48.774;8.942;2023-02-20T07:45:09;9.55;;;3.25;;
69030;SDS011;56083;48.774;8.942;2023-02-20T07:47:35;10.95;;;3.33;;
69030;SDS011;56083;48.774;8.942;2023-02-20T07:50:01;11.65;;;3.40;;
69030;SDS011;56083;48.774;8.942;2023-02-20T07:52:27;14.27;;;3.67;;
69030;SDS011;56083;48.774;8.942;2023-02-20T07:54:52;10.63;;;3.35;;
69030;SDS011;56083;48.774;8.942;2023-02-20T07:57:18;12.75;;;3.72;;
69030;SDS011;56083;48.774;8.942;2023-02-20T07:59:44;10.55;;;3.22;;
69030;SDS011;56083;48.774;8.942;2023-02-20T08:02:09;13.15;;;3.65;;
69030;SDS011;56083;48.774;8.942;2023-02-20T08:04:35;10.00;;;3.20;;
69030;SDS011;56083;48.774;8.942;2023-02-20T08:07:00;9.68;;;3.40;;
69030;SDS011;56083;48.774;8.942;2023-02-20T08:09:26;9.75;;;3.28;;
69030;SDS011;56083;48.774;8.942;2023-02-20T08:11:52;13.15;;;3.53;;
69030;SDS011;56083;48.774;8.942;2023-02-20T08:14:17;9.95;;;3.15;;
69030;SDS011;56083;48.774;8.942;2023-02-20T08:16:43;12.18;;;3.38;;
69030;SDS011;56083;48.774;8.942;2023-02-20T08:19:09;13.93;;;3.75;;
69030;SDS011;56083;48.774;8.942;2023-02-20T08:21:34;13.38;;;3.50;;
69030;SDS011;56083;48.774;8.942;2023-02-20T08:24:00;14.32;;;3.65;;
69030;SDS011;56083;48.774;8.942;2023-02-20T08:26:25;9.35;;;3.20;;
69030;SDS011;56083;48.774;8.942;2023-02-20T08:28:52;9.48;;;3.03;;
69030;SDS011;56083;48.774;8.942;2023-02-20T08:31:18;5.93;;;2.63;;
69030;SDS011;56083;48.774;8.942;2023-02-20T08:33:44;9.13;;;3.00;;
69030;SDS011;56083;48.774;8.942;2023-02-20T08:36:09;11.07;;;3.15;;
69030;SDS011;56083;48.774;8.942;2023-02-20T08:38:35;11.82;;;3.38;;
69030;SDS011;56083;48.774;8.942;2023-02-20T08:41:03;8.35;;;2.72;;
69030;SDS011;56083;48.774;8.942;2023-02-20T08:43:31;12.88;;;3.15;;
69030;SDS011;56083;48.774;8.942;2023-02-20T08:45:57;11.00;;;3.05;;
69030;SDS011;56083;48.774;8.942;2023-02-20T08:48:23;11.23;;;3.13;;
69030;SDS011;56083;48.774;8.942;2023-02-20T08:50:49;10.05;;;2.72;;
69030;SDS011;56083;48.774;8.942;2023-02-20T08:53:15;9.55;;;2.85;;
69030;SDS011;56083;48.774;8.942;2023-02-20T08:55:41;11.13;;;3.65;;
69030;SDS011;56083;48.774;8.942;2023-02-20T08:58:07;9.05;;;3.35;;
69030;SDS011;56083;48.774;8.942;2023-02-20T09:00:32;11.27;;;2.70;;
69030;SDS011;56083;48.774;8.942;2023-02-20T09:02:58;8.35;;;2.67;;
69030;SDS011;56083;48.774;8.942;2023-02-20T09:05:24;11.20;;;2.72;;
69030;SDS011;56083;48.774;8.942;2023-02-20T09:07:50;9.60;;;2.47;;
69030;SDS011;56083;48.774;8.942;2023-02-20T09:10:19;8.75;;;2.53;;
69030;SDS011;56083;48.774;8.942;2023-02-20T09:12:45;9.63;;;2.78;;
69030;SDS011;56083;48.774;8.942;2023-02-20T09:15:11;15.60;;;2.70;;
69030;SDS011;56083;48.774;8.942;2023-02-20T09:17:41;7.53;;;2.50;;
69030;SDS011;56083;48.774;8.942;2023-02-20T09:20:08;8.80;;;2.50;;
69030;SDS011;56083;48.774;8.942;2023-02-20T09:22:34;7.35;;;2.30;;
69030;SDS011;56083;48.774;8.942;2023-02-20T09:25:00;7.80;;;2.25;;
69030;SDS011;56083;48.774;8.942;2023-02-20T09:27:26;7.80;;;2.22;;
69030;SDS011;56083;48.774;8.942;2023-02-20T09:29:52;5.75;;;2.25;;
69030;SDS011;56083;48.774;8.942;2023-02-20T09:32:17;5.97;;;2.20;;
69030;SDS011;56083;48.774;8.942;2023-02-20T09:34:43;9.63;;;2.30;;
69030;SDS011;56083;48.774;8.942;2023-02-20T09:37:09;9.48;;;2.03;;
69030;SDS011;56083;48.774;8.942;2023-02-20T09:39:35;8.27;;;2.30;;
69030;SDS011;56083;48.774;8.942;2023-02-20T09:49:49;9.85;;;2.00;;
69030;SDS011;56083;48.774;8.942;2023-02-20T09:52:17;7.10;;;1.80;;
69030;SDS011;56083;48.774;8.942;2023-02-20T09:54:47;7.68;;;2.25;;
69030;SDS011;56083;48.774;8.942;2023-02-20T09:57:17;8.88;;;2.00;;
69030;SDS011;56083;48.774;8.942;2023-02-20T09:59:50;8.20;;;2.00;;
69030;SDS011;56083;48.774;8.942;2023-02-20T10:02:21;9.10;;;2.30;;
69030;SDS011;56083;48.774;8.942;2023-02-20T10:04:53;6.97;;;1.90;;
69030;SDS011;56083;48.774;8.942;2023-02-20T10:07:27;5.97;;;1.73;;
69030;SDS011;56083;48.774;8.942;2023-02-20T10:26:46;7.03;;;2.05;;
69030;SDS011;56083;48.774;8.942;2023-02-20T10:29:17;9.77;;;2.42;;
69030;SDS011;56083;48.774;8.942;2023-02-20T10:31:50;8.82;;;2.50;;
69030;SDS011;56083;48.774;8.942;2023-02-20T10:37:09;5.22;;;1.77;;
69030;SDS011;56083;48.774;8.942;2023-02-20T10:39:39;6.90;;;1.80;;
69030;SDS011;56083;48.774;8.942;2023-02-20T10:42:15;8.95;;;1.73;;
69030;SDS011;56083;48.774;8.942;2023-02-20T10:45:02;4.45;;;1.60;;
69030;SDS011;56083;48.774;8.942;2023-02-20T10:47:41;6.95;;;1.67;;
69030;SDS011;56083;48.774;8.942;2023-02-20T10:50:20;4.82;;;1.67;;
69030;SDS011;56083;48.774;8.942;2023-02-20T10:52:53;6.30;;;1.92;;
69030;SDS011;56083;48.774;8.942;2023-02-20T10:55:27;4.90;;;1.80;;
69030;SDS011;56083;48.774;8.942;2023-02-20T11:01:09;3.90;;;1.55;;
69030;SDS011;56083;48.774;8.942;2023-02-20T11:03:38;5.13;;;1.50;;
69030;SDS011;56083;48.774;8.942;2023-02-20T11:06:15;5.13;;;1.80;;
69030;SDS011;56083;48.774;8.942;2023-02-20T11:08:42;4.72;;;1.80;;
69030;SDS011;56083;48.774;8.942;2023-02-20T11:14:10;4.13;;;1.58;;
69030;SDS011;56083;48.774;8.942;2023-02-20T11:16:51;5.78;;;1.85;;
69030;SDS011;56083;48.774;8.942;2023-02-20T11:19:25;3.88;;;1.55;;
69030;SDS011;56083;48.774;8.942;2023-02-20T11:21:56;5.85;;;1.92;;
69030;SDS011;56083;48.774;8.942;2023-02-20T11:26:54;4.18;;;1.58;;
69030;SDS011;56083;48.774;8.942;2023-02-20T11:29:23;6.00;;;1.58;;
69030;SDS011;56083;48.774;8.942;2023-02-20T11:31:50;4.20;;;1.95;;
69030;SDS011;56083;48.774;8.942;2023-02-20T11:34:18;4.97;;;1.65;;
69030;SDS011;56083;48.774;8.942;2023-02-20T11:36:47;4.90;;;1.73;;
69030;SDS011;56083;48.774;8.942;2023-02-20T11:39:18;5.95;;;1.70;;
69030;SDS011;56083;48.774;8.942;2023-02-20T11:41:47;7.07;;;1.95;;
69030;SDS011;56083;48.774;8.942;2023-02-20T11:44:16;5.60;;;1.55;;
69030;SDS011;56083;48.774;8.942;2023-02-20T11:46:46;5.25;;;1.63;;
69030;SDS011;56083;48.774;8.942;2023-02-20T11:49:26;5.72;;;1.83;;
69030;SDS011;56083;48.774;8.942;2023-02-20T11:51:54;3.78;;;1.27;;
69030;SDS011;56083;48.774;8.942;2023-02-20T11:54:43;2.17;;;1.08;;
69030;SDS011;56083;48.774;8.942;2023-02-20T11:57:20;4.05;;;1.30;;
69030;SDS011;56083;48.774;8.942;2023-02-20T12:00:09;3.78;;;1.10;;
69030;SDS011;56083;48.774;8.942;2023-02-20T12:02:35;4.65;;;1.27;;
69030;SDS011;56083;48.774;8.942;2023-02-20T12:05:13;3.28;;;1.27;;
69030;SDS011;56083;48.774;8.942;2023-02-20T12:07:40;4.65;;;1.30;;
69030;SDS011;56083;48.774;8.942;2023-02-20T12:13:02;4.22;;;1.00;;
69030;SDS011;56083;48.774;8.942;2023-02-20T12:15:29;5.32;;;1.02;;
69030;SDS011;56083;48.774;8.942;2023-02-20T12:20:53;2.30;;;0.90;;
69030;SDS011;56083;48.774;8.942;2023-02-20T12:26:57;2.47;;;1.00;;
69030;SDS011;56083;48.774;8.942;2023-02-20T12:29:44;2.95;;;1.00;;
69030;SDS011;56083;48.774;8.942;2023-02-20T12:32:34;4.70;;;1.08;;
69030;SDS011;56083;48.774;8.942;2023-02-20T12:35:18;1.77;;;0.65;;
69030;SDS011;56083;48.774;8.942;2023-02-20T12:40:52;3.03;;;0.93;;
69030;SDS011;56083;48.774;8.942;2023-02-20T12:46:15;4.95;;;0.80;;
69030;SDS011;56083;48.774;8.942;2023-02-20T12:54:18;6.80;;;1.00;;
69030;SDS011;56083;48.774;8.942;2023-02-20T12:57:03;5.22;;;0.90;;
69030;SDS011;56083;48.774;8.942;2023-02-20T13:00:02;4.00;;;0.90;;
69030;SDS011;56083;48.774;8.942;2023-02-20T13:02:36;1.55;;;0.63;;
69030;SDS011;56083;48.774;8.942;2023-02-20T13:05:06;2.75;;;0.70;;
69030;SDS011;56083;48.774;8.942;2023-02-20T13:07:41;1.92;;;0.70;;
69030;SDS011;56083;48.774;8.942;2023-02-20T13:10:24;2.08;;;0.68;;
69030;SDS011;56083;48.774;8.942;2023-02-20T13:12:54;3.58;;;0.70;;
69030;SDS011;56083;48.774;8.942;2023-02-20T13:21:02;3.75;;;0.73;;
69030;SDS011;56083;48.774;8.942;2023-02-20T13:23:33;3.55;;;0.70;;
69030;SDS011;56083;48.774;8.942;2023-02-20T13:26:00;4.57;;;0.65;;
69030;SDS011;56083;48.774;8.942;2023-02-20T13:28:34;0.88;;;0.45;;
69030;SDS011;56083;48.774;8.942;2023-02-20T13:31:08;2.22;;;0.50;;
69030;SDS011;56083;48.774;8.942;2023-02-20T13:33:39;3.33;;;0.57;;
69030;SDS011;56083;48.774;8.942;2023-02-20T13:36:17;1.83;;;0.40;;
69030;SDS011;56083;48.774;8.942;2023-02-20T13:42:04;7.05;;;0.52;;
69030;SDS011;56083;48.774;8.942;2023-02-20T13:57:41;3.15;;;0.60;;
69030;SDS011;56083;48.774;8.942;2023-02-20T14:02:44;4.10;;;0.80;;
69030;SDS011;56083;48.774;8.942;2023-02-20T14:05:43;1.90;;;0.63;;
69030;SDS011;56083;48.774;8.942;2023-02-20T14:08:02;3.97;;;0.40;;
69030;SDS011;56083;48.774;8.942;2023-02-20T14:13:05;1.42;;;0.75;;
69030;SDS011;56083;48.774;8.942;2023-02-20T14:15:55;1.85;;;0.63;;
69030;SDS011;56083;48.774;8.942;2023-02-20T14:20:50;3.75;;;0.40;;
69030;SDS011;56083;48.774;8.942;2023-02-20T14:23:32;2.78;;;0.55;;
69030;SDS011;56083;48.774;8.942;2023-02-20T14:26:03;6.68;;;0.50;;
69030;SDS011;56083;48.774;8.942;2023-02-20T14:28:31;1.30;;;0.50;;
69030;SDS011;56083;48.774;8.942;2023-02-20T14:31:02;3.58;;;0.60;;
69030;SDS011;56083;48.774;8.942;2023-02-20T14:33:28;6.38;;;0.63;;
69030;SDS011;56083;48.774;8.942;2023-02-20T14:41:22;1.50;;;0.50;;
69030;SDS011;56083;48.774;8.942;2023-02-20T14:43:55;2.92;;;0.63;;
69030;SDS011;56083;48.774;8.942;2023-02-20T14:46:24;6.57;;;0.60;;
69030;SDS011;56083;48.774;8.942;2023-02-20T14:49:14;7.47;;;0.70;;
69030;SDS011;56083;48.774;8.942;2023-02-20T14:51:41;1.63;;;0.40;;
69030;SDS011;56083;48.774;8.942;2023-02-20T14:56:46;3.33;;;0.55;;
69030;SDS011;56083;48.774;8.942;2023-02-20T15:01:48;2.28;;;0.40;;
69030;SDS011;56083;48.774;8.942;2023-02-20T15:04:15;2.20;;;0.65;;
69030;SDS011;56083;48.774;8.942;2023-02-20T15:06:43;2.80;;;0.52;;
69030;SDS011;56083;48.774;8.942;2023-02-20T15:09:11;2.08;;;0.73;;
69030;SDS011;56083;48.774;8.942;2023-02-20T15:11:44;3.15;;;0.75;;
69030;SDS011;56083;48.774;8.942;2023-02-20T15:14:16;4.03;;;0.77;;
69030;SDS011;56083;48.774;8.942;2023-02-20T15:16:47;3.83;;;0.90;;
69030;SDS011;56083;48.774;8.942;2023-02-20T15:19:32;4.68;;;0.68;;
69030;SDS011;56083;48.774;8.942;2023-02-20T15:21:59;2.58;;;0.50;;
69030;SDS011;56083;48.774;8.942;2023-02-20T15:27:06;4.00;;;0.60;;
69030;SDS011;56083;48.774;8.942;2023-02-20T15:29:38;2.28;;;0.55;;
69030;SDS011;56083;48.774;8.942;2023-02-20T15:32:17;4.50;;;0.65;;
69030;SDS011;56083;48.774;8.942;2023-02-20T15:34:53;5.00;;;0.63;;
69030;SDS011;56083;48.774;8.942;2023-02-20T15:37:30;7.40;;;0.70;;
69030;SDS011;56083;48.774;8.942;2023-02-20T15:40:05;4.03;;;0.70;;
69030;SDS011;56083;48.774;8.942;2023-02-20T15:42:46;1.02;;;0.45;;
69030;SDS011;56083;48.774;8.942;2023-02-20T15:45:12;2.05;;;0.65;;
69030;SDS011;56083;48.774;8.942;2023-02-20T15:47:38;3.05;;;0.52;;
69030;SDS011;56083;48.774;8.942;2023-02-20T15:50:04;1.58;;;0.50;;
69030;SDS011;56083;48.774;8.942;2023-02-20T15:52:30;2.03;;;0.43;;
69030;SDS011;56083;48.774;8.942;2023-02-20T15:54:56;1.83;;;0.68;;
69030;SDS011;56083;48.774;8.942;2023-02-20T15:57:25;3.25;;;0.68;;
69030;SDS011;56083;48.774;8.942;2023-02-20T15:59:50;5.25;;;0.82;;
69030;SDS011;56083;48.774;8.942;2023-02-20T16:02:19;3.70;;;0.90;;
69030;SDS011;56083;48.774;8.942;2023-02-20T16:04:47;3.67;;;0.50;;
69030;SDS011;56083;48.774;8.942;2023-02-20T16:07:14;2.40;;;0.70;;
69030;SDS011;56083;48.774;8.942;2023-02-20T16:09:40;2.33;;;0.70;;
69030;SDS011;56083;48.774;8.942;2023-02-20T16:12:06;1.55;;;0.55;;
69030;SDS011;56083;48.774;8.942;2023-02-20T16:14:37;4.80;;;0.70;;
69030;SDS011;56083;48.774;8.942;2023-02-20T16:17:03;4.30;;;0.80;;
69030;SDS011;56083;48.774;8.942;2023-02-20T16:19:28;2.83;;;0.60;;
69030;SDS011;56083;48.774;8.942;2023-02-20T16:21:54;3.55;;;0.75;;
69030;SDS011;56083;48.774;8.942;2023-02-20T16:24:20;2.65;;;0.70;;
69030;SDS011;56083;48.774;8.942;2023-02-20T16:26:46;2.70;;;0.90;;
69030;SDS011;56083;48.774;8.942;2023-02-20T16:29:14;5.10;;;1.00;;
69030;SDS011;56083;48.774;8.942;2023-02-20T16:34:28;2.40;;;0.88;;
69030;SDS011;56083;48.774;8.942;2023-02-20T16:36:56;3.72;;;1.00;;
69030;SDS011;56083;48.774;8.942;2023-02-20T16:39:22;6.07;;;1.05;;
69030;SDS011;56083;48.774;8.942;2023-02-20T16:41:48;7.75;;;1.33;;
69030;SDS011;56083;48.774;8.942;2023-02-20T16:44:22;3.88;;;1.10;;
69030;SDS011;56083;48.774;8.942;2023-02-20T16:46:59;5.93;;;1.40;;
69030;SDS011;56083;48.774;8.942;2023-02-20T16:49:24;4.43;;;1.00;;
69030;SDS011;56083;48.774;8.942;2023-02-20T16:51:50;1.90;;;0.98;;
69030;SDS011;56083;48.774;8.942;2023-02-20T16:54:25;5.25;;;0.90;;
69030;SDS011;56083;48.774;8.942;2023-02-20T16:56:53;5.22;;;0.82;;
69030;SDS011;56083;48.774;8.942;2023-02-20T16:59:19;3.25;;;0.80;;
69030;SDS011;56083;48.774;8.942;2023-02-20T17:01:46;5.03;;;0.70;;
69030;SDS011;56083;48.774;8.942;2023-02-20T17:04:12;5.25;;;0.85;;
69030;SDS011;56083;48.774;8.942;2023-02-20T17:06:39;3.95;;;1.00;;
69030;SDS011;56083;48.774;8.942;2023-02-20T17:09:05;4.30;;;1.48;;
69030;SDS011;56083;48.774;8.942;2023-02-20T17:11:31;5.47;;;1.13;;
69030;SDS011;56083;48.774;8.942;2023-02-20T17:13:57;2.13;;;1.00;;
69030;SDS011;56083;48.774;8.942;2023-02-20T17:16:22;3.25;;;1.27;;
69030;SDS011;56083;48.774;8.942;2023-02-20T17:18:48;2.67;;;1.25;;